sensor_id;sensor_type;location;lat;lon;timestamp;P1;durP1;ratioP1;P2;durP2;ratioP2
48859;SDS011;34679;51.436;-2.518;2023-07-24T00:00:03;7.03;;;1.50;;
48859;SDS011;34679;51.436;-2.518;2023-07-24T00:02:30;10.60;;;1.80;;
48859;SDS011;34679;51.436;-2.518;2023-07-24T00:04:56;3.45;;;1.40;;
48859;SDS011;34679;51.436;-2.518;2023-07-24T00:07:21;3.33;;;1.50;;
48859;SDS011;34679;51.436;-2.518;2023-07-24T00:09:48;2.63;;;1.48;;
48859;SDS011;34679;51.436;-2.518;2023-07-24T00:12:13;3.67;;;1.40;;
48859;SDS011;34679;51.436;-2.518;2023-07-24T00:14:39;5.03;;;1.90;;
48859;SDS011;34679;51.436;-2.518;2023-07-24T00:17:05;7.45;;;1.58;;
48859;SDS011;34679;51.436;-2.518;2023-07-24T00:19:30;5.55;;;1.45;;
48859;SDS011;34679;51.436;-2.518;2023-07-24T00:21:56;9.38;;;1.58;;
48859;SDS011;34679;51.436;-2.518;2023-07-24T00:24:22;4.20;;;1.75;;
48859;SDS011;34679;51.436;-2.518;2023-07-24T00:26:48;8.30;;;1.92;;
48859;SDS011;34679;51.436;-2.518;2023-07-24T00:29:13;8.07;;;3.15;;
48859;SDS011;34679;51.436;-2.518;2023-07-24T00:31:39;4.35;;;1.80;;
48859;SDS011;34679;51.436;-2.518;2023-07-24T00:34:04;7.10;;;1.35;;
48859;SDS011;34679;51.436;-2.518;2023-07-24T00:36:30;5.60;;;1.67;;
48859;SDS011;34679;51.436;-2.518;2023-07-24T00:38:56;5.63;;;1.50;;
48859;SDS011;34679;51.436;-2.518;2023-07-24T00:41:21;5.57;;;1.40;;
48859;SDS011;34679;51.436;-2.518;2023-07-24T00:43:47;4.00;;;1.58;;
48859;SDS011;34679;51.436;-2.518;2023-07-24T00:46:13;3.25;;;1.33;;
48859;SDS011;34679;51.436;-2.518;2023-07-24T00:48:39;4.35;;;1.50;;
48859;SDS011;34679;51.436;-2.518;2023-07-24T00:51:05;5.72;;;1.50;;
48859;SDS011;34679;51.436;-2.518;2023-07-24T00:53:31;5.95;;;1.63;;
48859;SDS011;34679;51.436;-2.518;2023-07-24T00:55:57;2.63;;;1.45;;
48859;SDS011;34679;51.436;-2.518;2023-07-24T00:58:23;3.33;;;1.45;;
48859;SDS011;34679;51.436;-2.518;2023-07-24T01:00:49;3.67;;;1.70;;
48859;SDS011;34679;51.436;-2.518;2023-07-24T01:03:15;3.50;;;1.40;;
48859;SDS011;34679;51.436;-2.518;2023-07-24T01:05:41;9.55;;;1.73;;
48859;SDS011;34679;51.436;-2.518;2023-07-24T01:08:07;5.68;;;1.98;;
48859;SDS011;34679;51.436;-2.518;2023-07-24T01:10:33;3.40;;;1.80;;
48859;SDS011;34679;51.436;-2.518;2023-07-24T01:13:03;4.40;;;1.63;;
48859;SDS011;34679;51.436;-2.518;2023-07-24T01:15:33;5.47;;;1.70;;
48859;SDS011;34679;51.436;-2.518;2023-07-24T01:18:07;1.92;;;1.48;;
48859;SDS011;34679;51.436;-2.518;2023-07-24T01:20:36;5.18;;;1.30;;
48859;SDS011;34679;51.436;-2.518;2023-07-24T01:23:23;3.60;;;1.33;;
48859;SDS011;34679;51.436;-2.518;2023-07-24T01:26:24;13.35;;;3.65;;
48859;SDS011;34679;51.436;-2.518;2023-07-24T01:28:50;7.88;;;2.70;;
48859;SDS011;34679;51.436;-2.518;2023-07-24T01:31:16;3.75;;;1.75;;
48859;SDS011;34679;51.436;-2.518;2023-07-24T01:33:42;3.10;;;2.03;;
48859;SDS011;34679;51.436;-2.518;2023-07-24T01:36:09;4.65;;;1.77;;
48859;SDS011;34679;51.436;-2.518;2023-07-24T01:38:35;6.47;;;2.25;;
48859;SDS011;34679;51.436;-2.518;2023-07-24T01:41:02;2.97;;;1.55;;
48859;SDS011;34679;51.436;-2.518;2023-07-24T01:43:29;5.43;;;2.05;;
48859;SDS011;34679;51.436;-2.518;2023-07-24T01:45:55;6.10;;;1.80;;
48859;SDS011;34679;51.436;-2.518;2023-07-24T01:48:21;6.68;;;1.60;;
48859;SDS011;34679;51.436;-2.518;2023-07-24T01:50:47;4.80;;;1.90;;
48859;SDS011;34679;51.436;-2.518;2023-07-24T01:53:13;4.70;;;1.85;;
48859;SDS011;34679;51.436;-2.518;2023-07-24T01:55:38;4.22;;;1.73;;
48859;SDS011;34679;51.436;-2.518;2023-07-24T01:58:04;6.68;;;3.17;;
48859;SDS011;34679;51.436;-2.518;2023-07-24T02:00:30;5.57;;;2.92;;
48859;SDS011;34679;51.436;-2.518;2023-07-24T02:02:55;4.25;;;2.08;;
48859;SDS011;34679;51.436;-2.518;2023-07-24T02:05:21;6.00;;;1.90;;
48859;SDS011;34679;51.436;-2.518;2023-07-24T02:07:47;4.60;;;2.03;;
48859;SDS011;34679;51.436;-2.518;2023-07-24T02:10:13;5.28;;;1.85;;
48859;SDS011;34679;51.436;-2.518;2023-07-24T02:12:38;4.57;;;2.00;;
48859;SDS011;34679;51.436;-2.518;2023-07-24T02:15:05;4.45;;;2.25;;
48859;SDS011;34679;51.436;-2.518;2023-07-24T02:17:31;2.90;;;1.65;;
48859;SDS011;34679;51.436;-2.518;2023-07-24T02:19:56;3.53;;;1.48;;
48859;SDS011;34679;51.436;-2.518;2023-07-24T02:22:22;6.55;;;1.80;;
48859;SDS011;34679;51.436;-2.518;2023-07-24T02:24:49;2.70;;;1.80;;
48859;SDS011;34679;51.436;-2.518;2023-07-24T02:27:24;4.13;;;1.90;;
48859;SDS011;34679;51.436;-2.518;2023-07-24T02:29:56;3.38;;;1.95;;
48859;SDS011;34679;51.436;-2.518;2023-07-24T02:32:23;3.70;;;1.52;;
48859;SDS011;34679;51.436;-2.518;2023-07-24T02:34:49;5.63;;;2.10;;
48859;SDS011;34679;51.436;-2.518;2023-07-24T02:37:16;5.47;;;1.85;;
48859;SDS011;34679;51.436;-2.518;2023-07-24T02:39:41;4.22;;;1.65;;
48859;SDS011;34679;51.436;-2.518;2023-07-24T02:42:07;2.80;;;1.70;;
48859;SDS011;34679;51.436;-2.518;2023-07-24T02:44:36;5.70;;;2.10;;
48859;SDS011;34679;51.436;-2.518;2023-07-24T02:47:02;5.38;;;2.05;;
48859;SDS011;34679;51.436;-2.518;2023-07-24T02:49:28;7.10;;;1.80;;
48859;SDS011;34679;51.436;-2.518;2023-07-24T02:51:54;4.68;;;1.98;;
48859;SDS011;34679;51.436;-2.518;2023-07-24T02:54:20;5.18;;;2.20;;
48859;SDS011;34679;51.436;-2.518;2023-07-24T02:56:45;2.42;;;1.77;;
48859;SDS011;34679;51.436;-2.518;2023-07-24T02:59:11;6.22;;;2.08;;
48859;SDS011;34679;51.436;-2.518;2023-07-24T03:01:37;4.75;;;2.20;;
48859;SDS011;34679;51.436;-2.518;2023-07-24T03:04:02;5.13;;;2.83;;
48859;SDS011;34679;51.436;-2.518;2023-07-24T03:06:30;5.88;;;2.33;;
48859;SDS011;34679;51.436;-2.518;2023-07-24T03:08:56;3.85;;;2.10;;
48859;SDS011;34679;51.436;-2.518;2023-07-24T03:11:22;5.45;;;1.90;;
48859;SDS011;34679;51.436;-2.518;2023-07-24T03:13:47;5.63;;;2.10;;
48859;SDS011;34679;51.436;-2.518;2023-07-24T03:16:13;5.50;;;2.13;;
48859;SDS011;34679;51.436;-2.518;2023-07-24T03:18:39;5.18;;;1.75;;
48859;SDS011;34679;51.436;-2.518;2023-07-24T03:21:04;4.18;;;1.80;;
48859;SDS011;34679;51.436;-2.518;2023-07-24T03:23:30;5.05;;;2.00;;
48859;SDS011;34679;51.436;-2.518;2023-07-24T03:25:56;3.47;;;1.90;;
48859;SDS011;34679;51.436;-2.518;2023-07-24T03:28:21;3.67;;;1.55;;
48859;SDS011;34679;51.436;-2.518;2023-07-24T03:30:47;9.02;;;2.58;;
48859;SDS011;34679;51.436;-2.518;2023-07-24T03:33:13;2.08;;;1.42;;
48859;SDS011;34679;51.436;-2.518;2023-07-24T03:35:38;3.63;;;1.58;;
48859;SDS011;34679;51.436;-2.518;2023-07-24T03:38:04;5.95;;;1.73;;
48859;SDS011;34679;51.436;-2.518;2023-07-24T03:40:30;4.60;;;1.63;;
48859;SDS011;34679;51.436;-2.518;2023-07-24T03:42:57;6.40;;;1.95;;
48859;SDS011;34679;51.436;-2.518;2023-07-24T03:45:22;6.35;;;2.35;;
48859;SDS011;34679;51.436;-2.518;2023-07-24T03:47:48;5.18;;;1.90;;
48859;SDS011;34679;51.436;-2.518;2023-07-24T03:50:14;5.57;;;1.63;;
48859;SDS011;34679;51.436;-2.518;2023-07-24T03:52:40;6.32;;;1.77;;
48859;SDS011;34679;51.436;-2.518;2023-07-24T03:55:06;5.10;;;2.53;;
48859;SDS011;34679;51.436;-2.518;2023-07-24T03:57:32;5.00;;;2.97;;
48859;SDS011;34679;51.436;-2.518;2023-07-24T03:59:58;3.25;;;1.40;;
48859;SDS011;34679;51.436;-2.518;2023-07-24T04:02:24;3.92;;;1.80;;
48859;SDS011;34679;51.436;-2.518;2023-07-24T04:04:50;6.32;;;2.67;;
48859;SDS011;34679;51.436;-2.518;2023-07-24T04:07:15;2.20;;;1.70;;
48859;SDS011;34679;51.436;-2.518;2023-07-24T04:09:41;3.97;;;1.60;;
48859;SDS011;34679;51.436;-2.518;2023-07-24T04:12:07;3.35;;;1.73;;
48859;SDS011;34679;51.436;-2.518;2023-07-24T04:14:33;2.47;;;1.70;;
48859;SDS011;34679;51.436;-2.518;2023-07-24T04:16:58;5.07;;;1.80;;
48859;SDS011;34679;51.436;-2.518;2023-07-24T04:19:24;5.03;;;2.08;;
48859;SDS011;34679;51.436;-2.518;2023-07-24T04:21:50;5.65;;;1.88;;
48859;SDS011;34679;51.436;-2.518;2023-07-24T04:24:16;6.22;;;2.00;;
48859;SDS011;34679;51.436;-2.518;2023-07-24T04:26:41;3.70;;;1.60;;
48859;SDS011;34679;51.436;-2.518;2023-07-24T04:29:07;2.70;;;1.65;;
48859;SDS011;34679;51.436;-2.518;2023-07-24T04:31:33;3.80;;;1.65;;
48859;SDS011;34679;51.436;-2.518;2023-07-24T04:33:59;2.40;;;1.60;;
48859;SDS011;34679;51.436;-2.518;2023-07-24T04:36:25;3.85;;;1.70;;
48859;SDS011;34679;51.436;-2.518;2023-07-24T04:38:50;1.83;;;1.73;;
48859;SDS011;34679;51.436;-2.518;2023-07-24T04:41:16;3.15;;;1.63;;
48859;SDS011;34679;51.436;-2.518;2023-07-24T04:43:42;6.07;;;1.80;;
48859;SDS011;34679;51.436;-2.518;2023-07-24T04:46:08;4.63;;;1.98;;
48859;SDS011;34679;51.436;-2.518;2023-07-24T04:48:33;2.45;;;1.77;;
48859;SDS011;34679;51.436;-2.518;2023-07-24T04:50:59;5.10;;;2.20;;
48859;SDS011;34679;51.436;-2.518;2023-07-24T04:53:25;3.28;;;2.03;;
48859;SDS011;34679;51.436;-2.518;2023-07-24T04:55:50;4.57;;;1.90;;
48859;SDS011;34679;51.436;-2.518;2023-07-24T04:58:16;2.67;;;1.75;;
48859;SDS011;34679;51.436;-2.518;2023-07-24T05:00:42;3.55;;;2.00;;
48859;SDS011;34679;51.436;-2.518;2023-07-24T05:03:08;2.17;;;1.83;;
48859;SDS011;34679;51.436;-2.518;2023-07-24T05:05:36;4.03;;;1.80;;
48859;SDS011;34679;51.436;-2.518;2023-07-24T05:08:03;3.63;;;1.83;;
48859;SDS011;34679;51.436;-2.518;2023-07-24T05:10:29;3.70;;;2.10;;
48859;SDS011;34679;51.436;-2.518;2023-07-24T05:12:54;4.40;;;2.17;;
48859;SDS011;34679;51.436;-2.518;2023-07-24T05:15:21;3.15;;;2.03;;
48859;SDS011;34679;51.436;-2.518;2023-07-24T05:17:47;4.95;;;2.47;;
48859;SDS011;34679;51.436;-2.518;2023-07-24T05:20:13;4.25;;;2.35;;
48859;SDS011;34679;51.436;-2.518;2023-07-24T05:22:39;4.22;;;2.47;;
48859;SDS011;34679;51.436;-2.518;2023-07-24T05:25:04;6.65;;;3.40;;
48859;SDS011;34679;51.436;-2.518;2023-07-24T05:27:30;6.05;;;2.55;;
48859;SDS011;34679;51.436;-2.518;2023-07-24T05:29:56;4.68;;;2.40;;
48859;SDS011;34679;51.436;-2.518;2023-07-24T05:32:22;6.32;;;2.70;;
48859;SDS011;34679;51.436;-2.518;2023-07-24T05:34:48;4.03;;;2.35;;
48859;SDS011;34679;51.436;-2.518;2023-07-24T05:37:13;2.95;;;2.50;;
48859;SDS011;34679;51.436;-2.518;2023-07-24T05:39:39;2.92;;;2.40;;
48859;SDS011;34679;51.436;-2.518;2023-07-24T05:42:05;4.90;;;2.53;;
48859;SDS011;34679;51.436;-2.518;2023-07-24T05:44:31;5.43;;;2.63;;
48859;SDS011;34679;51.436;-2.518;2023-07-24T05:46:58;8.65;;;2.35;;
48859;SDS011;34679;51.436;-2.518;2023-07-24T05:49:23;3.55;;;2.15;;
48859;SDS011;34679;51.436;-2.518;2023-07-24T05:51:49;5.47;;;2.50;;
48859;SDS011;34679;51.436;-2.518;2023-07-24T05:54:15;5.80;;;2.58;;
48859;SDS011;34679;51.436;-2.518;2023-07-24T05:56:40;5.88;;;2.55;;
48859;SDS011;34679;51.436;-2.518;2023-07-24T05:59:06;2.65;;;2.42;;
48859;SDS011;34679;51.436;-2.518;2023-07-24T06:01:32;5.05;;;2.80;;
48859;SDS011;34679;51.436;-2.518;2023-07-24T06:03:57;4.07;;;2.50;;
48859;SDS011;34679;51.436;-2.518;2023-07-24T06:06:23;5.70;;;3.00;;
48859;SDS011;34679;51.436;-2.518;2023-07-24T06:08:49;4.75;;;2.47;;
48859;SDS011;34679;51.436;-2.518;2023-07-24T06:11:16;5.30;;;2.22;;
48859;SDS011;34679;51.436;-2.518;2023-07-24T06:13:41;5.28;;;2.80;;
48859;SDS011;34679;51.436;-2.518;2023-07-24T06:16:07;2.85;;;2.13;;
48859;SDS011;34679;51.436;-2.518;2023-07-24T06:18:34;2.35;;;1.77;;
48859;SDS011;34679;51.436;-2.518;2023-07-24T06:21:00;2.53;;;1.60;;
48859;SDS011;34679;51.436;-2.518;2023-07-24T06:23:25;8.77;;;3.10;;
48859;SDS011;34679;51.436;-2.518;2023-07-24T06:25:51;1.58;;;1.00;;
48859;SDS011;34679;51.436;-2.518;2023-07-24T06:28:18;2.78;;;0.73;;
48859;SDS011;34679;51.436;-2.518;2023-07-24T06:30:43;0.80;;;0.80;;
48859;SDS011;34679;51.436;-2.518;2023-07-24T06:33:09;1.30;;;0.80;;
48859;SDS011;34679;51.436;-2.518;2023-07-24T06:35:35;0.45;;;0.45;;
48859;SDS011;34679;51.436;-2.518;2023-07-24T06:38:01;2.35;;;0.60;;
48859;SDS011;34679;51.436;-2.518;2023-07-24T06:40:26;0.45;;;0.43;;
48859;SDS011;34679;51.436;-2.518;2023-07-24T06:42:52;0.95;;;0.20;;
48859;SDS011;34679;51.436;-2.518;2023-07-24T06:45:18;0.20;;;0.20;;
48859;SDS011;34679;51.436;-2.518;2023-07-24T06:47:44;0.63;;;0.20;;
48859;SDS011;34679;51.436;-2.518;2023-07-24T06:50:09;0.10;;;0.10;;
48859;SDS011;34679;51.436;-2.518;2023-07-24T06:52:35;0.63;;;0.20;;
48859;SDS011;34679;51.436;-2.518;2023-07-24T06:55:01;0.35;;;0.13;;
48859;SDS011;34679;51.436;-2.518;2023-07-24T06:57:27;0.30;;;0.28;;
48859;SDS011;34679;51.436;-2.518;2023-07-24T06:59:52;0.75;;;0.10;;
48859;SDS011;34679;51.436;-2.518;2023-07-24T07:02:18;0.17;;;0.17;;
48859;SDS011;34679;51.436;-2.518;2023-07-24T07:04:44;2.38;;;0.20;;
48859;SDS011;34679;51.436;-2.518;2023-07-24T07:07:09;0.30;;;0.10;;
48859;SDS011;34679;51.436;-2.518;2023-07-24T07:09:35;1.45;;;0.10;;
48859;SDS011;34679;51.436;-2.518;2023-07-24T07:12:01;0.75;;;0.25;;
48859;SDS011;34679;51.436;-2.518;2023-07-24T07:14:26;0.13;;;0.13;;
48859;SDS011;34679;51.436;-2.518;2023-07-24T07:16:52;0.20;;;0.20;;
48859;SDS011;34679;51.436;-2.518;2023-07-24T07:19:18;0.10;;;0.10;;
48859;SDS011;34679;51.436;-2.518;2023-07-24T07:21:43;1.50;;;0.10;;
48859;SDS011;34679;51.436;-2.518;2023-07-24T07:24:09;0.30;;;0.20;;
48859;SDS011;34679;51.436;-2.518;2023-07-24T07:26:35;0.10;;;0.10;;
48859;SDS011;34679;51.436;-2.518;2023-07-24T07:29:00;0.35;;;0.10;;
48859;SDS011;34679;51.436;-2.518;2023-07-24T07:31:26;1.20;;;0.30;;
48859;SDS011;34679;51.436;-2.518;2023-07-24T07:33:52;1.52;;;0.10;;
48859;SDS011;34679;51.436;-2.518;2023-07-24T07:36:17;0.20;;;0.20;;
48859;SDS011;34679;51.436;-2.518;2023-07-24T07:38:43;2.22;;;0.25;;
48859;SDS011;34679;51.436;-2.518;2023-07-24T07:41:09;0.30;;;0.20;;
48859;SDS011;34679;51.436;-2.518;2023-07-24T07:43:35;0.10;;;0.10;;
48859;SDS011;34679;51.436;-2.518;2023-07-24T07:46:01;0.17;;;0.10;;
48859;SDS011;34679;51.436;-2.518;2023-07-24T07:48:27;0.22;;;0.10;;
48859;SDS011;34679;51.436;-2.518;2023-07-24T07:50:53;0.20;;;0.20;;
48859;SDS011;34679;51.436;-2.518;2023-07-24T07:53:19;0.00;;;0.00;;
48859;SDS011;34679;51.436;-2.518;2023-07-24T07:55:45;0.90;;;0.10;;
48859;SDS011;34679;51.436;-2.518;2023-07-24T07:58:11;0.10;;;0.10;;
48859;SDS011;34679;51.436;-2.518;2023-07-24T08:00:36;0.10;;;0.10;;
48859;SDS011;34679;51.436;-2.518;2023-07-24T08:03:06;0.10;;;0.10;;
48859;SDS011;34679;51.436;-2.518;2023-07-24T08:05:31;0.20;;;0.10;;
48859;SDS011;34679;51.436;-2.518;2023-07-24T08:07:57;0.57;;;0.20;;
48859;SDS011;34679;51.436;-2.518;2023-07-24T08:10:23;0.20;;;0.10;;
48859;SDS011;34679;51.436;-2.518;2023-07-24T08:12:49;0.73;;;0.10;;
48859;SDS011;34679;51.436;-2.518;2023-07-24T08:15:14;0.10;;;0.10;;
48859;SDS011;34679;51.436;-2.518;2023-07-24T08:17:40;0.22;;;0.10;;
48859;SDS011;34679;51.436;-2.518;2023-07-24T08:20:06;0.20;;;0.10;;
48859;SDS011;34679;51.436;-2.518;2023-07-24T08:22:32;0.15;;;0.15;;
48859;SDS011;34679;51.436;-2.518;2023-07-24T08:24:58;0.20;;;0.20;;
48859;SDS011;34679;51.436;-2.518;2023-07-24T08:27:23;0.30;;;0.20;;
48859;SDS011;34679;51.436;-2.518;2023-07-24T08:29:52;0.28;;;0.13;;
48859;SDS011;34679;51.436;-2.518;2023-07-24T08:32:18;0.25;;;0.13;;
48859;SDS011;34679;51.436;-2.518;2023-07-24T08:34:44;0.20;;;0.20;;
48859;SDS011;34679;51.436;-2.518;2023-07-24T08:37:11;2.17;;;0.70;;
48859;SDS011;34679;51.436;-2.518;2023-07-24T08:39:37;1.52;;;0.50;;
48859;SDS011;34679;51.436;-2.518;2023-07-24T08:42:13;0.40;;;0.20;;
48859;SDS011;34679;51.436;-2.518;2023-07-24T08:44:39;7.80;;;0.45;;
48859;SDS011;34679;51.436;-2.518;2023-07-24T08:47:06;0.32;;;0.13;;
48859;SDS011;34679;51.436;-2.518;2023-07-24T08:49:35;0.80;;;0.20;;
48859;SDS011;34679;51.436;-2.518;2023-07-24T08:52:03;0.13;;;0.10;;
48859;SDS011;34679;51.436;-2.518;2023-07-24T08:54:31;0.40;;;0.13;;
48859;SDS011;34679;51.436;-2.518;2023-07-24T08:57:00;0.28;;;0.28;;
48859;SDS011;34679;51.436;-2.518;2023-07-24T08:59:27;0.30;;;0.20;;
48859;SDS011;34679;51.436;-2.518;2023-07-24T09:01:54;0.50;;;0.30;;
48859;SDS011;34679;51.436;-2.518;2023-07-24T09:04:20;0.98;;;0.20;;
48859;SDS011;34679;51.436;-2.518;2023-07-24T09:06:46;1.90;;;0.32;;
48859;SDS011;34679;51.436;-2.518;2023-07-24T09:09:15;0.40;;;0.30;;
48859;SDS011;34679;51.436;-2.518;2023-07-24T09:11:53;0.25;;;0.22;;
48859;SDS011;34679;51.436;-2.518;2023-07-24T09:14:20;0.28;;;0.22;;
48859;SDS011;34679;51.436;-2.518;2023-07-24T09:17:01;0.55;;;0.17;;
48859;SDS011;34679;51.436;-2.518;2023-07-24T09:19:27;0.20;;;0.20;;
48859;SDS011;34679;51.436;-2.518;2023-07-24T09:21:53;0.32;;;0.30;;
48859;SDS011;34679;51.436;-2.518;2023-07-24T09:24:19;0.30;;;0.20;;
48859;SDS011;34679;51.436;-2.518;2023-07-24T09:26:51;0.60;;;0.20;;
48859;SDS011;34679;51.436;-2.518;2023-07-24T09:29:18;0.70;;;0.20;;
48859;SDS011;34679;51.436;-2.518;2023-07-24T09:31:45;1.42;;;0.30;;
48859;SDS011;34679;51.436;-2.518;2023-07-24T09:34:14;0.20;;;0.20;;
48859;SDS011;34679;51.436;-2.518;2023-07-24T09:36:44;0.65;;;0.30;;
48859;SDS011;34679;51.436;-2.518;2023-07-24T09:39:10;0.40;;;0.30;;
48859;SDS011;34679;51.436;-2.518;2023-07-24T09:41:37;1.73;;;0.38;;
48859;SDS011;34679;51.436;-2.518;2023-07-24T09:44:04;3.58;;;0.40;;
48859;SDS011;34679;51.436;-2.518;2023-07-24T09:46:30;1.02;;;0.35;;
48859;SDS011;34679;51.436;-2.518;2023-07-24T09:48:57;0.57;;;0.30;;
48859;SDS011;34679;51.436;-2.518;2023-07-24T09:51:27;0.30;;;0.30;;
48859;SDS011;34679;51.436;-2.518;2023-07-24T09:54:11;0.60;;;0.30;;
48859;SDS011;34679;51.436;-2.518;2023-07-24T09:56:43;0.30;;;0.30;;
48859;SDS011;34679;51.436;-2.518;2023-07-24T09:59:09;0.52;;;0.40;;
48859;SDS011;34679;51.436;-2.518;2023-07-24T10:01:37;1.00;;;0.52;;
48859;SDS011;34679;51.436;-2.518;2023-07-24T10:04:03;0.60;;;0.40;;
48859;SDS011;34679;51.436;-2.518;2023-07-24T10:06:30;0.52;;;0.52;;
48859;SDS011;34679;51.436;-2.518;2023-07-24T10:08:57;0.60;;;0.35;;
48859;SDS011;34679;51.436;-2.518;2023-07-24T10:11:23;0.70;;;0.65;;
48859;SDS011;34679;51.436;-2.518;2023-07-24T10:13:51;0.73;;;0.43;;
48859;SDS011;34679;51.436;-2.518;2023-07-24T10:16:17;0.63;;;0.35;;
48859;SDS011;34679;51.436;-2.518;2023-07-24T10:18:44;0.50;;;0.50;;
48859;SDS011;34679;51.436;-2.518;2023-07-24T10:21:11;0.40;;;0.40;;
48859;SDS011;34679;51.436;-2.518;2023-07-24T10:23:39;0.32;;;0.22;;
48859;SDS011;34679;51.436;-2.518;2023-07-24T10:26:09;0.40;;;0.40;;
48859;SDS011;34679;51.436;-2.518;2023-07-24T10:28:39;0.65;;;0.50;;
48859;SDS011;34679;51.436;-2.518;2023-07-24T10:31:06;0.65;;;0.43;;
48859;SDS011;34679;51.436;-2.518;2023-07-24T10:33:34;1.42;;;0.50;;
48859;SDS011;34679;51.436;-2.518;2023-07-24T10:36:07;0.25;;;0.25;;
48859;SDS011;34679;51.436;-2.518;2023-07-24T10:38:40;0.30;;;0.28;;
48859;SDS011;34679;51.436;-2.518;2023-07-24T10:41:07;0.57;;;0.38;;
48859;SDS011;34679;51.436;-2.518;2023-07-24T10:44:07;0.57;;;0.40;;
48859;SDS011;34679;51.436;-2.518;2023-07-24T10:46:34;0.75;;;0.30;;
48859;SDS011;34679;51.436;-2.518;2023-07-24T10:49:02;0.22;;;0.22;;
48859;SDS011;34679;51.436;-2.518;2023-07-24T10:51:29;1.45;;;0.40;;
48859;SDS011;34679;51.436;-2.518;2023-07-24T10:53:57;0.77;;;0.40;;
48859;SDS011;34679;51.436;-2.518;2023-07-24T10:56:23;1.00;;;0.30;;
48859;SDS011;34679;51.436;-2.518;2023-07-24T10:58:48;3.55;;;0.50;;
48859;SDS011;34679;51.436;-2.518;2023-07-24T11:01:14;0.30;;;0.30;;
48859;SDS011;34679;51.436;-2.518;2023-07-24T11:03:41;1.05;;;0.38;;
48859;SDS011;34679;51.436;-2.518;2023-07-24T11:06:19;1.15;;;0.40;;
48859;SDS011;34679;51.436;-2.518;2023-07-24T11:08:56;1.35;;;0.20;;
48859;SDS011;34679;51.436;-2.518;2023-07-24T11:11:30;0.70;;;0.35;;
48859;SDS011;34679;51.436;-2.518;2023-07-24T11:13:57;0.65;;;0.40;;
48859;SDS011;34679;51.436;-2.518;2023-07-24T11:16:23;2.55;;;0.50;;
48859;SDS011;34679;51.436;-2.518;2023-07-24T11:18:49;0.52;;;0.40;;
48859;SDS011;34679;51.436;-2.518;2023-07-24T11:21:20;1.50;;;0.40;;
48859;SDS011;34679;51.436;-2.518;2023-07-24T11:23:50;3.33;;;0.50;;
48859;SDS011;34679;51.436;-2.518;2023-07-24T11:26:21;0.68;;;0.50;;
48859;SDS011;34679;51.436;-2.518;2023-07-24T11:28:48;0.40;;;0.40;;
48859;SDS011;34679;51.436;-2.518;2023-07-24T11:31:14;0.60;;;0.40;;
48859;SDS011;34679;51.436;-2.518;2023-07-24T11:33:40;1.27;;;0.52;;
48859;SDS011;34679;51.436;-2.518;2023-07-24T11:36:07;0.47;;;0.40;;
48859;SDS011;34679;51.436;-2.518;2023-07-24T11:38:33;0.40;;;0.40;;
48859;SDS011;34679;51.436;-2.518;2023-07-24T11:40:59;0.63;;;0.63;;
48859;SDS011;34679;51.436;-2.518;2023-07-24T11:43:25;0.73;;;0.40;;
48859;SDS011;34679;51.436;-2.518;2023-07-24T11:45:51;0.50;;;0.40;;
48859;SDS011;34679;51.436;-2.518;2023-07-24T11:48:19;0.40;;;0.40;;
48859;SDS011;34679;51.436;-2.518;2023-07-24T11:50:46;1.58;;;0.57;;
48859;SDS011;34679;51.436;-2.518;2023-07-24T11:58:19;0.50;;;0.47;;
48859;SDS011;34679;51.436;-2.518;2023-07-24T12:00:46;2.03;;;0.30;;
48859;SDS011;34679;51.436;-2.518;2023-07-24T12:03:13;0.85;;;0.50;;
48859;SDS011;34679;51.436;-2.518;2023-07-24T12:05:44;0.43;;;0.43;;
48859;SDS011;34679;51.436;-2.518;2023-07-24T12:08:10;0.63;;;0.57;;
48859;SDS011;34679;51.436;-2.518;2023-07-24T12:10:37;0.85;;;0.40;;
48859;SDS011;34679;51.436;-2.518;2023-07-24T12:13:04;7.22;;;0.60;;
48859;SDS011;34679;51.436;-2.518;2023-07-24T12:15:30;0.55;;;0.55;;
48859;SDS011;34679;51.436;-2.518;2023-07-24T12:17:58;1.67;;;1.15;;
48859;SDS011;34679;51.436;-2.518;2023-07-24T12:20:24;0.90;;;0.57;;
48859;SDS011;34679;51.436;-2.518;2023-07-24T12:22:49;1.25;;;0.70;;
48859;SDS011;34679;51.436;-2.518;2023-07-24T12:25:15;1.30;;;0.70;;
48859;SDS011;34679;51.436;-2.518;2023-07-24T12:27:41;1.73;;;0.73;;
48859;SDS011;34679;51.436;-2.518;2023-07-24T12:30:07;1.05;;;0.75;;
48859;SDS011;34679;51.436;-2.518;2023-07-24T12:32:33;0.50;;;0.50;;
48859;SDS011;34679;51.436;-2.518;2023-07-24T12:35:00;0.88;;;0.60;;
48859;SDS011;34679;51.436;-2.518;2023-07-24T12:37:26;0.80;;;0.50;;
48859;SDS011;34679;51.436;-2.518;2023-07-24T12:39:51;0.57;;;0.47;;
48859;SDS011;34679;51.436;-2.518;2023-07-24T12:42:17;2.10;;;0.50;;
48859;SDS011;34679;51.436;-2.518;2023-07-24T12:44:43;0.77;;;0.60;;
48859;SDS011;34679;51.436;-2.518;2023-07-24T12:47:09;2.28;;;0.55;;
48859;SDS011;34679;51.436;-2.518;2023-07-24T12:49:36;1.17;;;0.55;;
48859;SDS011;34679;51.436;-2.518;2023-07-24T12:52:02;0.98;;;0.50;;
48859;SDS011;34679;51.436;-2.518;2023-07-24T12:54:28;1.05;;;0.60;;
48859;SDS011;34679;51.436;-2.518;2023-07-24T12:56:54;0.50;;;0.50;;
48859;SDS011;34679;51.436;-2.518;2023-07-24T12:59:20;3.63;;;0.70;;
48859;SDS011;34679;51.436;-2.518;2023-07-24T13:01:46;1.10;;;0.98;;
48859;SDS011;34679;51.436;-2.518;2023-07-24T13:04:12;1.38;;;1.25;;
48859;SDS011;34679;51.436;-2.518;2023-07-24T13:06:38;2.75;;;0.98;;
48859;SDS011;34679;51.436;-2.518;2023-07-24T13:09:04;2.35;;;1.30;;
48859;SDS011;34679;51.436;-2.518;2023-07-24T13:11:30;2.58;;;1.30;;
48859;SDS011;34679;51.436;-2.518;2023-07-24T13:13:56;2.97;;;1.42;;
48859;SDS011;34679;51.436;-2.518;2023-07-24T13:16:22;2.42;;;1.42;;
48859;SDS011;34679;51.436;-2.518;2023-07-24T13:18:49;4.07;;;1.67;;
48859;SDS011;34679;51.436;-2.518;2023-07-24T13:21:14;3.60;;;1.98;;
48859;SDS011;34679;51.436;-2.518;2023-07-24T13:23:41;6.38;;;1.70;;
48859;SDS011;34679;51.436;-2.518;2023-07-24T13:26:07;2.65;;;2.20;;
48859;SDS011;34679;51.436;-2.518;2023-07-24T13:28:37;3.75;;;1.85;;
48859;SDS011;34679;51.436;-2.518;2023-07-24T13:31:13;3.60;;;2.05;;
48859;SDS011;34679;51.436;-2.518;2023-07-24T13:33:40;2.60;;;1.45;;
48859;SDS011;34679;51.436;-2.518;2023-07-24T13:36:07;3.45;;;2.50;;
48859;SDS011;34679;51.436;-2.518;2023-07-24T13:38:32;3.35;;;1.80;;
48859;SDS011;34679;51.436;-2.518;2023-07-24T13:40:58;4.03;;;1.77;;
48859;SDS011;34679;51.436;-2.518;2023-07-24T13:43:24;2.05;;;1.80;;
48859;SDS011;34679;51.436;-2.518;2023-07-24T13:45:50;2.13;;;1.50;;
48859;SDS011;34679;51.436;-2.518;2023-07-24T13:48:16;4.03;;;1.40;;
48859;SDS011;34679;51.436;-2.518;2023-07-24T13:50:42;2.13;;;1.65;;
48859;SDS011;34679;51.436;-2.518;2023-07-24T13:53:07;4.28;;;1.80;;
48859;SDS011;34679;51.436;-2.518;2023-07-24T13:55:33;1.92;;;1.20;;
48859;SDS011;34679;51.436;-2.518;2023-07-24T13:57:59;2.60;;;1.00;;
48859;SDS011;34679;51.436;-2.518;2023-07-24T14:00:25;2.10;;;1.23;;
48859;SDS011;34679;51.436;-2.518;2023-07-24T14:02:51;4.22;;;1.33;;
48859;SDS011;34679;51.436;-2.518;2023-07-24T14:05:17;5.00;;;1.92;;
48859;SDS011;34679;51.436;-2.518;2023-07-24T14:07:43;6.43;;;1.48;;
48859;SDS011;34679;51.436;-2.518;2023-07-24T14:10:09;3.05;;;1.52;;
48859;SDS011;34679;51.436;-2.518;2023-07-24T14:12:35;2.67;;;1.73;;
48859;SDS011;34679;51.436;-2.518;2023-07-24T14:15:02;2.97;;;1.35;;
48859;SDS011;34679;51.436;-2.518;2023-07-24T14:17:28;2.65;;;1.52;;
48859;SDS011;34679;51.436;-2.518;2023-07-24T14:19:54;2.28;;;1.67;;
48859;SDS011;34679;51.436;-2.518;2023-07-24T14:22:19;2.42;;;1.23;;
48859;SDS011;34679;51.436;-2.518;2023-07-24T14:24:45;2.70;;;1.33;;
48859;SDS011;34679;51.436;-2.518;2023-07-24T14:27:12;2.17;;;1.00;;
48859;SDS011;34679;51.436;-2.518;2023-07-24T14:29:41;3.95;;;1.08;;
48859;SDS011;34679;51.436;-2.518;2023-07-24T14:32:06;2.88;;;1.02;;
48859;SDS011;34679;51.436;-2.518;2023-07-24T14:34:32;2.50;;;1.15;;